sensor_id;sensor_type;location;lat;lon;timestamp;P1;durP1;ratioP1;P2;durP2;ratioP2
74371;SDS011;62885;51.374;6.170;2022-09-03T00:01:58;6.35;;;2.20;;
74371;SDS011;62885;51.374;6.170;2022-09-03T00:04:41;6.55;;;3.55;;
74371;SDS011;62885;51.374;6.170;2022-09-03T00:07:13;5.18;;;1.90;;
74371;SDS011;62885;51.374;6.170;2022-09-03T00:09:48;4.40;;;1.77;;
74371;SDS011;62885;51.374;6.170;2022-09-03T00:12:21;4.95;;;2.33;;
74371;SDS011;62885;51.374;6.170;2022-09-03T00:17:40;5.97;;;1.98;;
74371;SDS011;62885;51.374;6.170;2022-09-03T00:20:12;3.75;;;1.70;;
74371;SDS011;62885;51.374;6.170;2022-09-03T00:22:47;4.45;;;1.73;;
74371;SDS011;62885;51.374;6.170;2022-09-03T00:25:17;5.00;;;2.00;;
74371;SDS011;62885;51.374;6.170;2022-09-03T00:27:47;3.90;;;1.65;;
74371;SDS011;62885;51.374;6.170;2022-09-03T00:30:19;2.97;;;1.70;;
74371;SDS011;62885;51.374;6.170;2022-09-03T00:35:31;4.65;;;1.80;;
74371;SDS011;62885;51.374;6.170;2022-09-03T00:38:00;6.75;;;1.85;;
74371;SDS011;62885;51.374;6.170;2022-09-03T00:40:40;3.22;;;1.40;;
74371;SDS011;62885;51.374;6.170;2022-09-03T00:43:41;6.28;;;1.70;;
74371;SDS011;62885;51.374;6.170;2022-09-03T00:46:19;3.40;;;1.40;;
74371;SDS011;62885;51.374;6.170;2022-09-03T00:51:43;5.10;;;2.08;;
74371;SDS011;62885;51.374;6.170;2022-09-03T01:00:00;2.95;;;1.45;;
74371;SDS011;62885;51.374;6.170;2022-09-03T01:09:58;3.03;;;1.50;;
74371;SDS011;62885;51.374;6.170;2022-09-03T01:15:14;2.35;;;1.30;;
74371;SDS011;62885;51.374;6.170;2022-09-03T01:17:53;3.70;;;1.23;;
74371;SDS011;62885;51.374;6.170;2022-09-03T01:28:53;2.95;;;1.60;;
74371;SDS011;62885;51.374;6.170;2022-09-03T01:34:33;3.00;;;1.50;;
74371;SDS011;62885;51.374;6.170;2022-09-03T01:51:06;5.20;;;1.48;;
74371;SDS011;62885;51.374;6.170;2022-09-03T01:56:49;4.43;;;1.70;;
74371;SDS011;62885;51.374;6.170;2022-09-03T02:02:39;4.05;;;1.67;;
74371;SDS011;62885;51.374;6.170;2022-09-03T02:07:40;3.75;;;1.50;;
74371;SDS011;62885;51.374;6.170;2022-09-03T02:10:13;3.53;;;1.50;;
74371;SDS011;62885;51.374;6.170;2022-09-03T02:12:40;3.33;;;1.70;;
74371;SDS011;62885;51.374;6.170;2022-09-03T02:15:14;3.28;;;1.60;;
74371;SDS011;62885;51.374;6.170;2022-09-03T02:17:42;4.32;;;1.70;;
74371;SDS011;62885;51.374;6.170;2022-09-03T02:20:11;3.30;;;1.70;;
74371;SDS011;62885;51.374;6.170;2022-09-03T02:22:42;4.05;;;1.50;;
74371;SDS011;62885;51.374;6.170;2022-09-03T02:25:07;4.55;;;1.75;;
74371;SDS011;62885;51.374;6.170;2022-09-03T02:27:35;3.50;;;1.40;;
74371;SDS011;62885;51.374;6.170;2022-09-03T02:30:03;3.97;;;1.40;;
74371;SDS011;62885;51.374;6.170;2022-09-03T02:32:30;2.55;;;1.33;;
74371;SDS011;62885;51.374;6.170;2022-09-03T02:34:56;3.08;;;1.42;;
74371;SDS011;62885;51.374;6.170;2022-09-03T02:37:22;2.70;;;1.25;;
74371;SDS011;62885;51.374;6.170;2022-09-03T02:39:47;4.50;;;1.63;;
74371;SDS011;62885;51.374;6.170;2022-09-03T02:42:13;3.15;;;1.27;;
74371;SDS011;62885;51.374;6.170;2022-09-03T02:47:30;3.30;;;1.60;;
74371;SDS011;62885;51.374;6.170;2022-09-03T02:49:58;4.25;;;1.70;;
74371;SDS011;62885;51.374;6.170;2022-09-03T02:52:23;3.13;;;1.35;;
74371;SDS011;62885;51.374;6.170;2022-09-03T02:54:49;2.53;;;1.33;;
74371;SDS011;62885;51.374;6.170;2022-09-03T02:57:15;2.53;;;1.30;;
74371;SDS011;62885;51.374;6.170;2022-09-03T02:59:41;2.97;;;1.20;;
74371;SDS011;62885;51.374;6.170;2022-09-03T03:02:11;2.15;;;1.20;;
74371;SDS011;62885;51.374;6.170;2022-09-03T03:04:37;2.42;;;1.27;;
74371;SDS011;62885;51.374;6.170;2022-09-03T03:07:04;3.80;;;1.88;;
74371;SDS011;62885;51.374;6.170;2022-09-03T03:09:30;5.07;;;1.38;;
74371;SDS011;62885;51.374;6.170;2022-09-03T03:11:56;2.88;;;1.45;;
74371;SDS011;62885;51.374;6.170;2022-09-03T03:14:21;7.65;;;1.50;;
74371;SDS011;62885;51.374;6.170;2022-09-03T03:16:50;4.53;;;1.33;;
74371;SDS011;62885;51.374;6.170;2022-09-03T03:19:16;2.95;;;1.30;;
74371;SDS011;62885;51.374;6.170;2022-09-03T03:21:41;2.15;;;1.30;;
74371;SDS011;62885;51.374;6.170;2022-09-03T03:24:07;2.90;;;1.30;;
74371;SDS011;62885;51.374;6.170;2022-09-03T03:26:33;5.03;;;1.40;;
74371;SDS011;62885;51.374;6.170;2022-09-03T03:28:59;1.95;;;1.02;;
74371;SDS011;62885;51.374;6.170;2022-09-03T03:31:28;3.80;;;1.13;;
74371;SDS011;62885;51.374;6.170;2022-09-03T03:33:55;3.47;;;1.50;;
74371;SDS011;62885;51.374;6.170;2022-09-03T03:36:23;2.88;;;1.33;;
74371;SDS011;62885;51.374;6.170;2022-09-03T03:38:52;2.10;;;1.10;;
74371;SDS011;62885;51.374;6.170;2022-09-03T03:41:20;2.15;;;1.15;;
74371;SDS011;62885;51.374;6.170;2022-09-03T03:43:47;3.60;;;1.33;;
74371;SDS011;62885;51.374;6.170;2022-09-03T03:46:16;3.38;;;1.60;;
74371;SDS011;62885;51.374;6.170;2022-09-03T03:48:41;3.83;;;1.40;;
74371;SDS011;62885;51.374;6.170;2022-09-03T03:51:07;3.43;;;1.13;;
74371;SDS011;62885;51.374;6.170;2022-09-03T03:53:34;4.07;;;1.23;;
74371;SDS011;62885;51.374;6.170;2022-09-03T03:56:02;1.90;;;1.05;;
74371;SDS011;62885;51.374;6.170;2022-09-03T03:58:29;1.67;;;1.27;;
74371;SDS011;62885;51.374;6.170;2022-09-03T04:01:03;3.10;;;1.25;;
74371;SDS011;62885;51.374;6.170;2022-09-03T04:03:48;3.45;;;1.60;;
74371;SDS011;62885;51.374;6.170;2022-09-03T04:06:15;2.03;;;1.10;;
74371;SDS011;62885;51.374;6.170;2022-09-03T04:08:42;1.65;;;1.27;;
74371;SDS011;62885;51.374;6.170;2022-09-03T04:11:10;2.38;;;1.30;;
74371;SDS011;62885;51.374;6.170;2022-09-03T04:13:37;2.35;;;1.30;;
74371;SDS011;62885;51.374;6.170;2022-09-03T04:16:05;4.97;;;1.50;;
74371;SDS011;62885;51.374;6.170;2022-09-03T04:18:33;3.40;;;1.35;;
74371;SDS011;62885;51.374;6.170;2022-09-03T04:21:03;3.10;;;1.38;;
74371;SDS011;62885;51.374;6.170;2022-09-03T04:23:31;4.35;;;1.50;;
74371;SDS011;62885;51.374;6.170;2022-09-03T04:25:57;2.97;;;1.27;;
74371;SDS011;62885;51.374;6.170;2022-09-03T04:28:23;3.58;;;1.83;;
74371;SDS011;62885;51.374;6.170;2022-09-03T04:30:49;5.57;;;1.40;;
74371;SDS011;62885;51.374;6.170;2022-09-03T04:33:15;3.00;;;1.15;;
74371;SDS011;62885;51.374;6.170;2022-09-03T04:35:40;2.95;;;1.50;;
74371;SDS011;62885;51.374;6.170;2022-09-03T04:38:06;2.58;;;1.33;;
74371;SDS011;62885;51.374;6.170;2022-09-03T04:40:32;6.32;;;1.67;;
74371;SDS011;62885;51.374;6.170;2022-09-03T04:42:57;3.60;;;1.50;;
74371;SDS011;62885;51.374;6.170;2022-09-03T04:45:24;3.00;;;1.50;;
74371;SDS011;62885;51.374;6.170;2022-09-03T04:47:59;3.50;;;1.63;;
74371;SDS011;62885;51.374;6.170;2022-09-03T04:50:26;2.35;;;1.20;;
74371;SDS011;62885;51.374;6.170;2022-09-03T04:52:53;2.42;;;1.40;;
74371;SDS011;62885;51.374;6.170;2022-09-03T04:55:22;3.65;;;1.40;;
74371;SDS011;62885;51.374;6.170;2022-09-03T04:57:47;5.35;;;1.35;;
74371;SDS011;62885;51.374;6.170;2022-09-03T05:00:13;2.33;;;1.27;;
74371;SDS011;62885;51.374;6.170;2022-09-03T05:02:42;4.25;;;1.38;;
74371;SDS011;62885;51.374;6.170;2022-09-03T05:05:07;1.95;;;1.20;;
74371;SDS011;62885;51.374;6.170;2022-09-03T05:07:33;4.78;;;1.10;;
74371;SDS011;62885;51.374;6.170;2022-09-03T05:10:06;3.25;;;1.20;;
74371;SDS011;62885;51.374;6.170;2022-09-03T05:12:33;2.20;;;1.40;;
74371;SDS011;62885;51.374;6.170;2022-09-03T05:14:58;2.03;;;1.02;;
74371;SDS011;62885;51.374;6.170;2022-09-03T05:17:24;4.28;;;1.33;;
74371;SDS011;62885;51.374;6.170;2022-09-03T05:19:50;2.58;;;1.52;;
74371;SDS011;62885;51.374;6.170;2022-09-03T05:22:16;3.45;;;1.30;;
74371;SDS011;62885;51.374;6.170;2022-09-03T05:24:46;2.30;;;1.30;;
74371;SDS011;62885;51.374;6.170;2022-09-03T05:27:15;5.28;;;1.40;;
74371;SDS011;62885;51.374;6.170;2022-09-03T05:29:43;3.58;;;1.20;;
74371;SDS011;62885;51.374;6.170;2022-09-03T05:32:09;2.88;;;1.20;;
74371;SDS011;62885;51.374;6.170;2022-09-03T05:34:36;2.67;;;1.20;;
74371;SDS011;62885;51.374;6.170;2022-09-03T05:37:01;1.27;;;1.13;;
74371;SDS011;62885;51.374;6.170;2022-09-03T05:39:27;2.65;;;1.10;;
74371;SDS011;62885;51.374;6.170;2022-09-03T05:41:52;2.70;;;1.10;;
74371;SDS011;62885;51.374;6.170;2022-09-03T05:44:18;2.20;;;1.05;;
74371;SDS011;62885;51.374;6.170;2022-09-03T05:46:47;1.58;;;1.17;;
74371;SDS011;62885;51.374;6.170;2022-09-03T05:49:13;3.13;;;1.13;;
74371;SDS011;62885;51.374;6.170;2022-09-03T05:51:38;2.85;;;1.20;;
74371;SDS011;62885;51.374;6.170;2022-09-03T05:54:04;3.72;;;1.33;;
74371;SDS011;62885;51.374;6.170;2022-09-03T05:56:30;1.73;;;1.13;;
74371;SDS011;62885;51.374;6.170;2022-09-03T05:58:57;2.90;;;1.20;;
74371;SDS011;62885;51.374;6.170;2022-09-03T06:01:26;2.42;;;1.17;;
74371;SDS011;62885;51.374;6.170;2022-09-03T06:03:54;3.97;;;1.13;;
74371;SDS011;62885;51.374;6.170;2022-09-03T06:06:22;2.78;;;1.40;;
74371;SDS011;62885;51.374;6.170;2022-09-03T06:08:54;3.30;;;1.13;;
74371;SDS011;62885;51.374;6.170;2022-09-03T06:11:22;5.13;;;2.00;;
74371;SDS011;62885;51.374;6.170;2022-09-03T06:13:57;3.15;;;1.15;;
74371;SDS011;62885;51.374;6.170;2022-09-03T06:16:25;3.13;;;1.20;;
74371;SDS011;62885;51.374;6.170;2022-09-03T06:18:51;3.95;;;1.10;;
74371;SDS011;62885;51.374;6.170;2022-09-03T06:21:17;3.20;;;1.30;;
74371;SDS011;62885;51.374;6.170;2022-09-03T06:23:47;2.83;;;1.30;;
74371;SDS011;62885;51.374;6.170;2022-09-03T06:26:15;3.00;;;1.33;;
74371;SDS011;62885;51.374;6.170;2022-09-03T06:28:41;2.45;;;1.20;;
74371;SDS011;62885;51.374;6.170;2022-09-03T06:31:10;4.80;;;1.30;;
74371;SDS011;62885;51.374;6.170;2022-09-03T06:33:37;2.58;;;1.23;;
74371;SDS011;62885;51.374;6.170;2022-09-03T06:36:05;3.60;;;1.33;;
74371;SDS011;62885;51.374;6.170;2022-09-03T06:38:32;2.72;;;1.33;;
74371;SDS011;62885;51.374;6.170;2022-09-03T06:41:05;2.28;;;1.20;;
74371;SDS011;62885;51.374;6.170;2022-09-03T06:43:38;2.85;;;1.10;;
74371;SDS011;62885;51.374;6.170;2022-09-03T06:46:09;1.48;;;1.08;;
74371;SDS011;62885;51.374;6.170;2022-09-03T06:48:37;5.28;;;1.40;;
74371;SDS011;62885;51.374;6.170;2022-09-03T06:51:08;2.13;;;1.10;;
74371;SDS011;62885;51.374;6.170;2022-09-03T06:53:36;4.65;;;1.42;;
74371;SDS011;62885;51.374;6.170;2022-09-03T06:56:04;3.35;;;1.38;;
74371;SDS011;62885;51.374;6.170;2022-09-03T06:58:32;3.38;;;1.50;;
74371;SDS011;62885;51.374;6.170;2022-09-03T07:01:05;1.95;;;1.02;;
74371;SDS011;62885;51.374;6.170;2022-09-03T07:03:36;2.60;;;1.25;;
74371;SDS011;62885;51.374;6.170;2022-09-03T07:06:04;4.18;;;1.38;;
74371;SDS011;62885;51.374;6.170;2022-09-03T07:08:34;2.67;;;1.30;;
74371;SDS011;62885;51.374;6.170;2022-09-03T07:11:00;3.00;;;1.45;;
74371;SDS011;62885;51.374;6.170;2022-09-03T07:13:33;2.58;;;1.40;;
74371;SDS011;62885;51.374;6.170;2022-09-03T07:16:21;6.13;;;1.17;;
74371;SDS011;62885;51.374;6.170;2022-09-03T07:18:56;2.67;;;1.20;;
74371;SDS011;62885;51.374;6.170;2022-09-03T07:21:26;1.48;;;1.20;;
74371;SDS011;62885;51.374;6.170;2022-09-03T07:23:53;3.50;;;1.20;;
74371;SDS011;62885;51.374;6.170;2022-09-03T07:26:20;4.22;;;1.20;;
74371;SDS011;62885;51.374;6.170;2022-09-03T07:28:48;2.30;;;1.40;;
74371;SDS011;62885;51.374;6.170;2022-09-03T07:31:15;3.25;;;1.17;;
74371;SDS011;62885;51.374;6.170;2022-09-03T07:33:50;3.00;;;1.20;;
74371;SDS011;62885;51.374;6.170;2022-09-03T07:36:18;4.00;;;1.70;;
74371;SDS011;62885;51.374;6.170;2022-09-03T07:38:44;4.13;;;1.58;;
74371;SDS011;62885;51.374;6.170;2022-09-03T07:41:10;5.68;;;1.67;;
74371;SDS011;62885;51.374;6.170;2022-09-03T07:43:38;3.17;;;1.25;;
74371;SDS011;62885;51.374;6.170;2022-09-03T07:46:05;3.40;;;1.20;;
74371;SDS011;62885;51.374;6.170;2022-09-03T07:48:31;3.35;;;1.70;;
74371;SDS011;62885;51.374;6.170;2022-09-03T07:50:57;2.70;;;1.33;;
74371;SDS011;62885;51.374;6.170;2022-09-03T07:53:25;3.38;;;1.40;;
74371;SDS011;62885;51.374;6.170;2022-09-03T07:55:51;4.13;;;1.10;;
74371;SDS011;62885;51.374;6.170;2022-09-03T07:58:17;4.30;;;1.13;;
74371;SDS011;62885;51.374;6.170;2022-09-03T08:00:42;2.15;;;1.30;;
74371;SDS011;62885;51.374;6.170;2022-09-03T08:03:07;2.95;;;1.17;;
74371;SDS011;62885;51.374;6.170;2022-09-03T08:05:33;2.05;;;0.95;;
74371;SDS011;62885;51.374;6.170;2022-09-03T08:08:01;3.08;;;1.30;;
74371;SDS011;62885;51.374;6.170;2022-09-03T08:10:27;3.88;;;1.42;;
74371;SDS011;62885;51.374;6.170;2022-09-03T08:12:56;2.10;;;1.20;;
74371;SDS011;62885;51.374;6.170;2022-09-03T08:15:22;4.20;;;1.20;;
74371;SDS011;62885;51.374;6.170;2022-09-03T08:17:48;1.88;;;1.38;;
74371;SDS011;62885;51.374;6.170;2022-09-03T08:20:14;2.60;;;1.20;;
74371;SDS011;62885;51.374;6.170;2022-09-03T08:22:40;2.42;;;1.20;;
74371;SDS011;62885;51.374;6.170;2022-09-03T08:25:05;3.35;;;1.27;;
74371;SDS011;62885;51.374;6.170;2022-09-03T08:27:31;2.45;;;1.20;;
74371;SDS011;62885;51.374;6.170;2022-09-03T08:29:57;3.42;;;1.30;;
74371;SDS011;62885;51.374;6.170;2022-09-03T08:32:22;2.70;;;1.30;;
74371;SDS011;62885;51.374;6.170;2022-09-03T08:34:48;2.15;;;1.20;;
74371;SDS011;62885;51.374;6.170;2022-09-03T08:37:14;7.00;;;1.30;;
74371;SDS011;62885;51.374;6.170;2022-09-03T08:39:40;6.35;;;1.30;;
74371;SDS011;62885;51.374;6.170;2022-09-03T08:42:16;3.50;;;1.27;;
74371;SDS011;62885;51.374;6.170;2022-09-03T08:47:17;4.75;;;1.30;;
74371;SDS011;62885;51.374;6.170;2022-09-03T08:49:52;3.38;;;1.30;;
74371;SDS011;62885;51.374;6.170;2022-09-03T08:54:56;3.40;;;1.10;;
74371;SDS011;62885;51.374;6.170;2022-09-03T08:57:25;2.58;;;1.10;;
74371;SDS011;62885;51.374;6.170;2022-09-03T09:00:04;7.72;;;1.55;;
74371;SDS011;62885;51.374;6.170;2022-09-03T09:05:09;3.55;;;1.50;;
74371;SDS011;62885;51.374;6.170;2022-09-03T09:07:45;4.40;;;1.35;;
74371;SDS011;62885;51.374;6.170;2022-09-03T09:16:03;4.40;;;1.27;;
74371;SDS011;62885;51.374;6.170;2022-09-03T09:18:40;4.95;;;1.67;;
74371;SDS011;62885;51.374;6.170;2022-09-03T09:21:29;3.20;;;1.52;;
74371;SDS011;62885;51.374;6.170;2022-09-03T09:24:01;3.30;;;1.35;;
74371;SDS011;62885;51.374;6.170;2022-09-03T09:26:28;6.53;;;1.25;;
74371;SDS011;62885;51.374;6.170;2022-09-03T09:28:56;3.65;;;1.40;;
74371;SDS011;62885;51.374;6.170;2022-09-03T09:31:25;3.13;;;1.40;;
74371;SDS011;62885;51.374;6.170;2022-09-03T09:33:52;3.42;;;1.45;;
74371;SDS011;62885;51.374;6.170;2022-09-03T09:36:17;4.00;;;1.30;;
74371;SDS011;62885;51.374;6.170;2022-09-03T09:38:45;2.30;;;1.30;;
74371;SDS011;62885;51.374;6.170;2022-09-03T09:41:16;2.80;;;1.38;;
74371;SDS011;62885;51.374;6.170;2022-09-03T09:43:44;4.07;;;1.60;;
74371;SDS011;62885;51.374;6.170;2022-09-03T09:46:14;6.35;;;1.85;;
74371;SDS011;62885;51.374;6.170;2022-09-03T09:48:46;5.38;;;1.55;;
74371;SDS011;62885;51.374;6.170;2022-09-03T09:51:16;3.63;;;1.60;;
74371;SDS011;62885;51.374;6.170;2022-09-03T09:53:45;3.13;;;1.10;;
74371;SDS011;62885;51.374;6.170;2022-09-03T09:56:21;3.60;;;1.40;;
74371;SDS011;62885;51.374;6.170;2022-09-03T09:58:48;6.07;;;2.03;;
74371;SDS011;62885;51.374;6.170;2022-09-03T10:01:22;2.63;;;1.20;;
74371;SDS011;62885;51.374;6.170;2022-09-03T10:03:53;5.78;;;1.60;;
74371;SDS011;62885;51.374;6.170;2022-09-03T10:06:27;3.70;;;1.77;;
74371;SDS011;62885;51.374;6.170;2022-09-03T10:09:17;3.92;;;1.83;;
74371;SDS011;62885;51.374;6.170;2022-09-03T10:12:07;2.55;;;1.40;;
74371;SDS011;62885;51.374;6.170;2022-09-03T10:14:38;3.08;;;1.40;;
74371;SDS011;62885;51.374;6.170;2022-09-03T10:17:12;2.38;;;1.33;;
74371;SDS011;62885;51.374;6.170;2022-09-03T10:19:45;1.90;;;1.30;;
74371;SDS011;62885;51.374;6.170;2022-09-03T10:22:40;3.75;;;1.55;;
74371;SDS011;62885;51.374;6.170;2022-09-03T10:25:14;4.43;;;1.45;;
74371;SDS011;62885;51.374;6.170;2022-09-03T10:27:40;3.95;;;1.50;;
74371;SDS011;62885;51.374;6.170;2022-09-03T10:30:10;3.55;;;1.67;;
74371;SDS011;62885;51.374;6.170;2022-09-03T10:32:44;3.45;;;1.35;;
74371;SDS011;62885;51.374;6.170;2022-09-03T10:38:09;3.95;;;1.92;;
74371;SDS011;62885;51.374;6.170;2022-09-03T10:40:50;4.88;;;1.80;;
74371;SDS011;62885;51.374;6.170;2022-09-03T10:49:05;4.45;;;2.00;;
74371;SDS011;62885;51.374;6.170;2022-09-03T10:51:44;5.07;;;1.80;;
74371;SDS011;62885;51.374;6.170;2022-09-03T11:00:15;5.05;;;1.80;;
74371;SDS011;62885;51.374;6.170;2022-09-03T11:05:30;3.95;;;1.58;;
74371;SDS011;62885;51.374;6.170;2022-09-03T11:08:09;3.15;;;1.45;;
74371;SDS011;62885;51.374;6.170;2022-09-03T11:10:42;6.30;;;2.35;;
74371;SDS011;62885;51.374;6.170;2022-09-03T11:13:16;6.65;;;1.95;;
74371;SDS011;62885;51.374;6.170;2022-09-03T11:21:07;4.35;;;1.70;;
74371;SDS011;62885;51.374;6.170;2022-09-03T11:23:38;7.15;;;2.22;;
74371;SDS011;62885;51.374;6.170;2022-09-03T11:26:07;6.07;;;2.10;;
74371;SDS011;62885;51.374;6.170;2022-09-03T11:36:38;4.55;;;2.00;;
74371;SDS011;62885;51.374;6.170;2022-09-03T11:41:40;7.43;;;2.20;;
74371;SDS011;62885;51.374;6.170;2022-09-03T11:44:18;6.80;;;1.70;;
74371;SDS011;62885;51.374;6.170;2022-09-03T11:46:54;4.28;;;1.98;;
74371;SDS011;62885;51.374;6.170;2022-09-03T11:49:26;3.70;;;1.83;;
74371;SDS011;62885;51.374;6.170;2022-09-03T11:51:55;3.88;;;1.75;;
74371;SDS011;62885;51.374;6.170;2022-09-03T11:54:26;4.72;;;2.20;;
74371;SDS011;62885;51.374;6.170;2022-09-03T11:59:54;4.07;;;2.65;;
74371;SDS011;62885;51.374;6.170;2022-09-03T12:02:34;3.42;;;1.60;;
74371;SDS011;62885;51.374;6.170;2022-09-03T12:08:08;6.65;;;2.10;;
74371;SDS011;62885;51.374;6.170;2022-09-03T12:10:50;5.38;;;2.25;;
74371;SDS011;62885;51.374;6.170;2022-09-03T12:13:23;5.45;;;2.15;;
74371;SDS011;62885;51.374;6.170;2022-09-03T12:18:46;5.13;;;1.67;;
74371;SDS011;62885;51.374;6.170;2022-09-03T12:21:16;3.53;;;1.80;;
74371;SDS011;62885;51.374;6.170;2022-09-03T12:28:48;4.40;;;2.10;;
74371;SDS011;62885;51.374;6.170;2022-09-03T12:31:20;5.25;;;1.98;;
74371;SDS011;62885;51.374;6.170;2022-09-03T12:33:57;4.55;;;1.98;;
74371;SDS011;62885;51.374;6.170;2022-09-03T12:36:25;3.88;;;2.03;;
74371;SDS011;62885;51.374;6.170;2022-09-03T12:39:09;8.50;;;2.55;;
74371;SDS011;62885;51.374;6.170;2022-09-03T12:41:38;4.18;;;1.77;;
74371;SDS011;62885;51.374;6.170;2022-09-03T12:44:18;3.03;;;1.77;;
74371;SDS011;62885;51.374;6.170;2022-09-03T12:46:58;4.95;;;1.85;;
74371;SDS011;62885;51.374;6.170;2022-09-03T12:49:33;8.32;;;1.92;;
74371;SDS011;62885;51.374;6.170;2022-09-03T12:52:15;3.28;;;1.85;;
74371;SDS011;62885;51.374;6.170;2022-09-03T12:57:55;5.47;;;2.30;;
74371;SDS011;62885;51.374;6.170;2022-09-03T13:00:26;3.33;;;1.83;;
74371;SDS011;62885;51.374;6.170;2022-09-03T13:02:56;4.43;;;2.22;;
74371;SDS011;62885;51.374;6.170;2022-09-03T13:05:24;4.30;;;2.00;;
74371;SDS011;62885;51.374;6.170;2022-09-03T13:07:57;3.70;;;2.00;;
74371;SDS011;62885;51.374;6.170;2022-09-03T13:10:33;3.58;;;2.13;;
74371;SDS011;62885;51.374;6.170;2022-09-03T13:13:49;6.93;;;2.13;;
74371;SDS011;62885;51.374;6.170;2022-09-03T13:29:41;8.43;;;2.30;;
74371;SDS011;62885;51.374;6.170;2022-09-03T13:34:53;4.50;;;2.15;;
74371;SDS011;62885;51.374;6.170;2022-09-03T13:37:37;3.08;;;2.00;;
74371;SDS011;62885;51.374;6.170;2022-09-03T13:40:11;3.35;;;1.80;;
74371;SDS011;62885;51.374;6.170;2022-09-03T13:42:49;3.88;;;1.88;;
74371;SDS011;62885;51.374;6.170;2022-09-03T13:45:34;7.00;;;1.80;;
74371;SDS011;62885;51.374;6.170;2022-09-03T13:48:08;4.93;;;1.85;;
74371;SDS011;62885;51.374;6.170;2022-09-03T13:51:05;3.33;;;1.85;;
74371;SDS011;62885;51.374;6.170;2022-09-03T13:54:02;3.15;;;1.80;;
74371;SDS011;62885;51.374;6.170;2022-09-03T13:59:19;2.80;;;1.85;;
74371;SDS011;62885;51.374;6.170;2022-09-03T14:07:39;3.35;;;1.80;;
74371;SDS011;62885;51.374;6.170;2022-09-03T14:13:41;4.93;;;2.10;;
74371;SDS011;62885;51.374;6.170;2022-09-03T14:19:06;4.07;;;1.90;;
74371;SDS011;62885;51.374;6.170;2022-09-03T14:21:42;4.07;;;2.10;;
74371;SDS011;62885;51.374;6.170;2022-09-03T14:24:22;4.10;;;2.40;;
74371;SDS011;62885;51.374;6.170;2022-09-03T14:27:00;3.88;;;2.30;;
74371;SDS011;62885;51.374;6.170;2022-09-03T14:29:28;4.40;;;2.58;;
74371;SDS011;62885;51.374;6.170;2022-09-03T14:32:14;8.55;;;3.20;;
74371;SDS011;62885;51.374;6.170;2022-09-03T14:40:23;7.20;;;2.70;;
74371;SDS011;62885;51.374;6.170;2022-09-03T14:45:59;4.25;;;2.25;;
74371;SDS011;62885;51.374;6.170;2022-09-03T14:51:58;4.75;;;2.50;;
74371;SDS011;62885;51.374;6.170;2022-09-03T14:54:45;3.47;;;2.20;;
74371;SDS011;62885;51.374;6.170;2022-09-03T14:57:30;5.82;;;2.53;;
74371;SDS011;62885;51.374;6.170;2022-09-03T15:00:14;3.10;;;1.73;;
74371;SDS011;62885;51.374;6.170;2022-09-03T15:09:04;7.68;;;2.20;;
74371;SDS011;62885;51.374;6.170;2022-09-03T15:11:47;3.65;;;2.28;;
74371;SDS011;62885;51.374;6.170;2022-09-03T15:14:28;4.15;;;2.25;;
74371;SDS011;62885;51.374;6.170;2022-09-03T15:30:40;3.50;;;2.00;;
74371;SDS011;62885;51.374;6.170;2022-09-03T15:33:16;5.47;;;3.13;;
74371;SDS011;62885;51.374;6.170;2022-09-03T15:36:02;5.45;;;2.67;;
74371;SDS011;62885;51.374;6.170;2022-09-03T15:38:53;4.60;;;2.10;;
74371;SDS011;62885;51.374;6.170;2022-09-03T15:44:50;4.28;;;2.42;;
74371;SDS011;62885;51.374;6.170;2022-09-03T15:50:46;6.43;;;2.65;;
74371;SDS011;62885;51.374;6.170;2022-09-03T15:53:04;4.28;;;2.30;;
74371;SDS011;62885;51.374;6.170;2022-09-03T15:55:46;2.60;;;1.73;;
74371;SDS011;62885;51.374;6.170;2022-09-03T15:58:30;3.25;;;1.90;;
74371;SDS011;62885;51.374;6.170;2022-09-03T16:01:00;12.27;;;6.70;;
74371;SDS011;62885;51.374;6.170;2022-09-03T16:04:18;6.80;;;3.38;;
74371;SDS011;62885;51.374;6.170;2022-09-03T16:09:08;5.03;;;2.90;;
74371;SDS011;62885;51.374;6.170;2022-09-03T16:14:39;5.93;;;2.67;;
74371;SDS011;62885;51.374;6.170;2022-09-03T16:20:17;6.88;;;2.80;;
74371;SDS011;62885;51.374;6.170;2022-09-03T16:22:50;5.38;;;2.85;;
74371;SDS011;62885;51.374;6.170;2022-09-03T16:25:26;4.95;;;2.45;;
74371;SDS011;62885;51.374;6.170;2022-09-03T16:28:12;6.15;;;2.92;;
74371;SDS011;62885;51.374;6.170;2022-09-03T16:44:49;3.60;;;2.40;;
74371;SDS011;62885;51.374;6.170;2022-09-03T16:47:37;4.00;;;2.35;;
74371;SDS011;62885;51.374;6.170;2022-09-03T17:01:16;6.72;;;2.50;;
74371;SDS011;62885;51.374;6.170;2022-09-03T17:04:03;6.13;;;1.98;;
74371;SDS011;62885;51.374;6.170;2022-09-03T17:20:56;4.53;;;2.33;;
74371;SDS011;62885;51.374;6.170;2022-09-03T17:23:53;5.53;;;2.63;;
74371;SDS011;62885;51.374;6.170;2022-09-03T17:40:15;4.57;;;2.42;;
74371;SDS011;62885;51.374;6.170;2022-09-03T17:45:44;6.78;;;2.67;;
74371;SDS011;62885;51.374;6.170;2022-09-03T17:50:52;12.13;;;4.60;;
74371;SDS011;62885;51.374;6.170;2022-09-03T17:56:24;6.55;;;3.35;;
74371;SDS011;62885;51.374;6.170;2022-09-03T17:58:54;8.93;;;3.72;;
74371;SDS011;62885;51.374;6.170;2022-09-03T18:01:29;5.82;;;3.00;;
74371;SDS011;62885;51.374;6.170;2022-09-03T18:09:02;5.53;;;2.87;;
74371;SDS011;62885;51.374;6.170;2022-09-03T18:11:32;5.57;;;3.05;;
74371;SDS011;62885;51.374;6.170;2022-09-03T18:14:06;6.22;;;2.70;;
74371;SDS011;62885;51.374;6.170;2022-09-03T18:19:36;9.88;;;2.90;;
74371;SDS011;62885;51.374;6.170;2022-09-03T18:22:35;5.93;;;2.63;;
74371;SDS011;62885;51.374;6.170;2022-09-03T18:25:28;6.45;;;3.05;;
74371;SDS011;62885;51.374;6.170;2022-09-03T18:28:15;5.40;;;2.65;;
74371;SDS011;62885;51.374;6.170;2022-09-03T18:31:02;4.28;;;2.50;;
74371;SDS011;62885;51.374;6.170;2022-09-03T18:33:46;5.75;;;2.58;;
74371;SDS011;62885;51.374;6.170;2022-09-03T18:36:30;5.20;;;2.53;;
74371;SDS011;62885;51.374;6.170;2022-09-03T18:39:15;5.15;;;2.63;;
74371;SDS011;62885;51.374;6.170;2022-09-03T18:54:08;8.00;;;3.15;;
74371;SDS011;62885;51.374;6.170;2022-09-03T18:57:04;6.47;;;2.70;;
74371;SDS011;62885;51.374;6.170;2022-09-03T19:00:07;5.90;;;2.70;;
74371;SDS011;62885;51.374;6.170;2022-09-03T19:03:15;8.60;;;3.00;;
74371;SDS011;62885;51.374;6.170;2022-09-03T19:06:21;6.10;;;2.70;;
74371;SDS011;62885;51.374;6.170;2022-09-03T19:15:01;5.20;;;2.70;;
74371;SDS011;62885;51.374;6.170;2022-09-03T19:20:54;6.85;;;3.00;;
74371;SDS011;62885;51.374;6.170;2022-09-03T19:23:45;7.20;;;2.72;;
74371;SDS011;62885;51.374;6.170;2022-09-03T19:32:20;7.05;;;2.85;;
74371;SDS011;62885;51.374;6.170;2022-09-03T19:35:18;7.22;;;3.60;;
74371;SDS011;62885;51.374;6.170;2022-09-03T19:41:24;6.63;;;3.00;;
74371;SDS011;62885;51.374;6.170;2022-09-03T19:47:02;7.68;;;3.10;;
74371;SDS011;62885;51.374;6.170;2022-09-03T19:53:07;7.82;;;3.00;;
74371;SDS011;62885;51.374;6.170;2022-09-03T19:55:56;11.07;;;4.55;;
74371;SDS011;62885;51.374;6.170;2022-09-03T19:58:43;5.60;;;2.78;;
74371;SDS011;62885;51.374;6.170;2022-09-03T20:01:33;7.32;;;3.45;;
74371;SDS011;62885;51.374;6.170;2022-09-03T20:04:20;7.93;;;2.95;;
74371;SDS011;62885;51.374;6.170;2022-09-03T20:07:10;6.10;;;3.20;;
74371;SDS011;62885;51.374;6.170;2022-09-03T20:09:55;4.80;;;2.80;;
74371;SDS011;62885;51.374;6.170;2022-09-03T20:12:44;5.75;;;2.60;;
74371;SDS011;62885;51.374;6.170;2022-09-03T20:15:15;6.32;;;2.60;;
74371;SDS011;62885;51.374;6.170;2022-09-03T20:17:52;5.25;;;2.70;;
74371;SDS011;62885;51.374;6.170;2022-09-03T20:20:43;4.82;;;2.92;;
74371;SDS011;62885;51.374;6.170;2022-09-03T20:26:16;5.15;;;2.53;;
74371;SDS011;62885;51.374;6.170;2022-09-03T20:34:56;5.03;;;2.40;;
74371;SDS011;62885;51.374;6.170;2022-09-03T20:37:27;4.43;;;2.15;;
74371;SDS011;62885;51.374;6.170;2022-09-03T20:42:47;3.92;;;2.13;;
74371;SDS011;62885;51.374;6.170;2022-09-03T20:45:23;4.97;;;2.10;;